createdAt,value
2023-03-13T00:00:07.004Z,984.47
2023-03-13T00:01:06.996Z,984.44
2023-03-13T00:03:41.899Z,984.41
2023-03-13T00:04:41.893Z,984.44
2023-03-13T00:05:41.862Z,984.40
2023-03-13T00:06:41.852Z,984.36
2023-03-13T00:07:41.837Z,984.39
2023-03-13T00:08:41.841Z,984.42
2023-03-13T00:09:41.820Z,984.47
2023-03-13T00:10:41.808Z,984.39
2023-03-13T00:11:41.794Z,984.43
2023-03-13T00:12:41.782Z,984.47
2023-03-13T00:13:41.781Z,984.38
2023-03-13T00:14:41.763Z,984.39
2023-03-13T00:15:41.753Z,984.37
2023-03-13T00:16:41.829Z,984.41
2023-03-13T00:17:41.738Z,984.26
2023-03-13T00:18:41.732Z,984.29
2023-03-13T00:19:41.713Z,984.25
2023-03-13T00:20:41.701Z,984.30
2023-03-13T00:21:41.696Z,984.32
2023-03-13T00:22:41.677Z,984.28
2023-03-13T00:23:41.678Z,984.22
2023-03-13T00:24:41.659Z,984.27
2023-03-13T00:25:41.643Z,984.25
2023-03-13T00:26:41.637Z,984.25
2023-03-13T00:27:41.622Z,984.18
2023-03-13T00:28:41.631Z,984.19
2023-03-13T00:29:41.615Z,984.21
2023-03-13T00:30:41.616Z,984.15
2023-03-13T00:31:41.582Z,984.13
2023-03-13T00:32:41.621Z,984.19
2023-03-13T00:33:41.591Z,984.11
2023-03-13T00:34:41.565Z,984.08
2023-03-13T00:35:41.670Z,984.05
2023-03-13T00:36:41.530Z,984.04
2023-03-13T00:37:41.530Z,984.09
2023-03-13T00:38:41.532Z,984.04
2023-03-13T00:39:41.502Z,984.08
2023-03-13T00:40:41.488Z,984.08
2023-03-13T00:41:41.487Z,984.06
2023-03-13T00:42:41.465Z,984.02
2023-03-13T00:43:41.470Z,984.08
2023-03-13T00:44:41.442Z,984.07
2023-03-13T00:45:41.449Z,984.12
2023-03-13T00:46:41.422Z,984.12
2023-03-13T00:47:41.415Z,984.07
2023-03-13T00:48:41.413Z,984.14
2023-03-13T00:49:41.405Z,984.12
2023-03-13T00:50:41.380Z,984.09
2023-03-13T00:51:41.381Z,984.10
2023-03-13T00:52:41.371Z,984.16
2023-03-13T00:53:41.363Z,984.19
2023-03-13T00:54:41.336Z,984.12
2023-03-13T00:55:41.332Z,984.11
2023-03-13T00:56:41.326Z,984.19
2023-03-13T00:57:41.307Z,984.08
2023-03-13T00:58:41.318Z,984.16
2023-03-13T00:59:41.298Z,984.03
2023-03-13T01:00:41.286Z,984.00
2023-03-13T01:01:41.282Z,983.95
2023-03-13T01:02:41.389Z,983.86
2023-03-13T01:03:41.362Z,983.88
2023-03-13T01:04:41.238Z,983.93
2023-03-13T01:05:41.237Z,983.82
2023-03-13T01:06:41.213Z,983.82
2023-03-13T01:07:41.209Z,983.79
2023-03-13T01:08:41.217Z,983.85
2023-03-13T01:09:41.186Z,983.79
2023-03-13T01:10:41.177Z,983.71
2023-03-13T01:11:41.163Z,983.76
2023-03-13T01:12:41.153Z,983.76
2023-03-13T01:13:41.169Z,983.65
2023-03-13T01:14:41.133Z,983.70
2023-03-13T01:15:41.163Z,983.76
2023-03-13T01:16:41.112Z,983.70
2023-03-13T01:17:41.106Z,983.69
2023-03-13T01:18:41.106Z,983.64
2023-03-13T01:19:41.091Z,983.60
2023-03-13T01:20:41.072Z,983.55
2023-03-13T01:21:41.059Z,983.60
2023-03-13T01:22:41.049Z,983.59
2023-03-13T01:23:41.051Z,983.63
2023-03-13T01:24:41.025Z,983.56
2023-03-13T01:25:41.019Z,983.61
2023-03-13T01:26:41.009Z,983.57
2023-03-13T01:27:41.013Z,983.46
2023-03-13T01:28:40.995Z,983.42
2023-03-13T01:29:40.980Z,983.53
2023-03-13T01:30:40.986Z,983.44
2023-03-13T01:31:40.963Z,983.29
2023-03-13T01:32:40.971Z,983.36
2023-03-13T01:33:40.950Z,983.30
2023-03-13T01:34:40.925Z,983.33
2023-03-13T01:35:40.981Z,983.31
2023-03-13T01:36:40.907Z,983.36
2023-03-13T01:37:40.897Z,983.29
2023-03-13T01:38:40.897Z,983.25
2023-03-13T01:39:40.889Z,983.20
2023-03-13T01:40:40.877Z,983.25
2023-03-13T01:41:40.856Z,983.21
2023-03-13T01:42:40.840Z,983.16
2023-03-13T01:43:40.829Z,983.19
2023-03-13T01:44:40.825Z,983.12
2023-03-13T01:45:40.809Z,983.05
2023-03-13T01:46:40.824Z,982.98
2023-03-13T01:47:40.787Z,982.92
2023-03-13T01:48:40.767Z,982.97
2023-03-13T01:49:40.772Z,982.80
2023-03-13T01:50:40.780Z,982.82
2023-03-13T01:51:40.743Z,982.83
2023-03-13T01:52:40.725Z,982.86
2023-03-13T01:53:40.720Z,982.71
2023-03-13T01:54:40.732Z,982.74
2023-03-13T01:55:40.720Z,982.71
2023-03-13T01:56:40.694Z,982.74
2023-03-13T01:57:40.684Z,982.67
2023-03-13T01:58:40.663Z,982.68
2023-03-13T01:59:40.682Z,982.63
2023-03-13T02:00:40.647Z,982.63
2023-03-13T02:01:40.646Z,982.58
2023-03-13T02:02:40.641Z,982.62
2023-03-13T02:03:40.616Z,982.61
2023-03-13T02:04:40.617Z,982.63
2023-03-13T02:05:40.601Z,982.59
2023-03-13T02:06:40.584Z,982.60
2023-03-13T02:07:40.580Z,982.55
2023-03-13T02:08:40.562Z,982.57
2023-03-13T02:09:40.562Z,982.61
2023-03-13T02:10:40.544Z,982.59
2023-03-13T02:11:40.542Z,982.59
2023-03-13T02:12:40.517Z,982.52
2023-03-13T02:13:40.505Z,982.61
2023-03-13T02:14:40.503Z,982.66
2023-03-13T02:15:40.499Z,982.67
2023-03-13T02:16:40.471Z,982.57
2023-03-13T02:17:40.477Z,982.54
2023-03-13T02:18:40.463Z,982.53
2023-03-13T02:19:40.458Z,982.55
2023-03-13T02:20:40.442Z,982.42
2023-03-13T02:21:40.426Z,982.61
2023-03-13T02:22:40.411Z,982.36
2023-03-13T02:23:40.401Z,982.49
2023-03-13T02:24:40.404Z,982.40
2023-03-13T02:25:40.385Z,982.38
2023-03-13T02:26:40.426Z,982.37
2023-03-13T02:27:40.367Z,982.39
2023-03-13T02:28:40.358Z,982.34
2023-03-13T02:29:40.428Z,982.34
2023-03-13T02:30:40.363Z,982.32
2023-03-13T02:31:40.435Z,982.29
2023-03-13T02:32:40.479Z,982.25
2023-03-13T02:33:40.310Z,982.21
2023-03-13T02:34:40.309Z,982.27
2023-03-13T02:35:40.330Z,982.26
2023-03-13T02:36:40.269Z,982.24
2023-03-13T02:37:40.260Z,982.21
2023-03-13T02:38:40.246Z,982.20
2023-03-13T02:39:40.261Z,982.18
2023-03-13T02:40:40.229Z,982.18
2023-03-13T02:41:40.223Z,982.16
2023-03-13T02:42:40.209Z,982.14
2023-03-13T02:43:40.222Z,982.07
2023-03-13T02:44:40.210Z,982.02
2023-03-13T02:45:40.181Z,982.07
2023-03-13T02:46:40.270Z,982.05
2023-03-13T02:47:40.170Z,982.12
2023-03-13T02:48:40.151Z,982.07
2023-03-13T02:49:40.139Z,981.99
2023-03-13T02:50:40.140Z,981.99
2023-03-13T02:51:40.119Z,981.90
2023-03-13T02:52:40.106Z,981.85
2023-03-13T02:53:40.104Z,981.86
2023-03-13T02:54:40.087Z,981.91
2023-03-13T02:55:40.090Z,981.93
2023-03-13T02:56:40.072Z,981.97
2023-03-13T02:57:40.058Z,981.85
2023-03-13T02:58:49.242Z,981.79
2023-03-13T02:59:41.046Z,981.81
2023-03-13T03:00:40.104Z,981.89
2023-03-13T03:01:40.033Z,981.69
2023-03-13T03:02:40.023Z,981.72
2023-03-13T03:03:40.126Z,981.56
2023-03-13T03:04:40.003Z,981.70
2023-03-13T03:05:39.998Z,981.64
2023-03-13T03:06:39.977Z,981.62
2023-03-13T03:07:39.967Z,981.65
2023-03-13T03:08:39.955Z,981.62
2023-03-13T03:09:41.059Z,981.61
2023-03-13T03:10:41.067Z,981.65
2023-03-13T03:11:41.053Z,981.64
2023-03-13T03:12:41.046Z,981.57
2023-03-13T03:13:41.052Z,981.60
2023-03-13T03:14:41.016Z,981.61
2023-03-13T03:15:41.046Z,981.54
2023-03-13T03:16:41.043Z,981.53
2023-03-13T03:17:40.979Z,981.45
2023-03-13T03:18:40.995Z,981.53
2023-03-13T03:19:40.961Z,981.42
2023-03-13T03:20:40.972Z,981.35
2023-03-13T03:21:40.933Z,981.29
2023-03-13T03:22:40.997Z,981.20
2023-03-13T03:23:40.914Z,981.23
2023-03-13T03:24:40.922Z,981.23
2023-03-13T03:25:40.908Z,981.12
2023-03-13T03:26:40.889Z,981.09
2023-03-13T03:27:40.873Z,981.05
2023-03-13T03:28:40.869Z,981.03
2023-03-13T03:29:40.854Z,981.02
2023-03-13T03:30:40.851Z,981.07
2023-03-13T03:31:40.928Z,980.99
2023-03-13T03:32:40.861Z,981.02
2023-03-13T03:33:40.818Z,981.05
2023-03-13T03:34:40.800Z,981.01
2023-03-13T03:35:40.842Z,980.94
2023-03-13T03:36:40.775Z,981.00
2023-03-13T03:37:40.765Z,980.93
2023-03-13T03:38:40.760Z,980.97
2023-03-13T03:39:40.753Z,980.96
2023-03-13T03:40:40.761Z,980.93
2023-03-13T03:41:40.723Z,980.89
2023-03-13T03:42:40.724Z,980.85
2023-03-13T03:43:40.710Z,980.89
2023-03-13T03:44:40.694Z,980.85
2023-03-13T03:45:40.753Z,980.87
2023-03-13T03:46:40.785Z,980.83
2023-03-13T03:47:40.670Z,980.79
2023-03-13T03:48:40.655Z,980.76
2023-03-13T03:49:40.646Z,980.76
2023-03-13T03:50:40.695Z,980.72
2023-03-13T03:51:40.681Z,980.76
2023-03-13T03:52:40.689Z,980.76
2023-03-13T03:53:40.615Z,980.77
2023-03-13T03:54:40.596Z,980.64
2023-03-13T03:55:40.608Z,980.73
2023-03-13T03:56:40.588Z,980.66
2023-03-13T03:57:40.571Z,980.66
2023-03-13T03:58:40.570Z,980.59
2023-03-13T03:59:40.568Z,980.61
2023-03-13T04:00:40.570Z,980.67
2023-03-13T04:01:40.535Z,980.61
2023-03-13T04:02:40.557Z,980.58
2023-03-13T04:03:40.687Z,980.65
2023-03-13T04:04:40.514Z,980.71
2023-03-13T04:05:40.504Z,980.64
2023-03-13T04:06:40.479Z,980.66
2023-03-13T04:07:40.478Z,980.56
2023-03-13T04:08:40.455Z,980.54
2023-03-13T04:09:40.450Z,980.63
2023-03-13T04:10:40.459Z,980.56
2023-03-13T04:11:40.456Z,980.55
2023-03-13T04:12:40.422Z,980.55
2023-03-13T04:13:40.409Z,980.48
2023-03-13T04:14:40.398Z,980.51
2023-03-13T04:15:40.403Z,980.49
2023-03-13T04:16:40.451Z,980.58
2023-03-13T04:17:40.374Z,980.57
2023-03-13T04:18:40.359Z,980.52
2023-03-13T04:19:40.350Z,980.60
2023-03-13T04:20:40.338Z,980.53
2023-03-13T04:21:40.350Z,980.52
2023-03-13T04:22:40.318Z,980.49
2023-03-13T04:23:40.317Z,980.56
2023-03-13T04:24:40.301Z,980.59
2023-03-13T04:25:40.285Z,980.56
2023-03-13T04:26:40.285Z,980.57
2023-03-13T04:27:40.276Z,980.50
2023-03-13T04:28:40.261Z,980.53
2023-03-13T04:29:40.255Z,980.42
2023-03-13T04:30:40.270Z,980.45
2023-03-13T04:31:40.259Z,980.51
2023-03-13T04:32:40.293Z,980.43
2023-03-13T04:33:40.210Z,980.40
2023-03-13T04:34:40.194Z,980.35
2023-03-13T04:35:40.322Z,980.38
2023-03-13T04:36:40.205Z,980.36
2023-03-13T04:37:40.160Z,980.33
2023-03-13T04:38:40.156Z,980.27
2023-03-13T04:39:40.150Z,980.22
2023-03-13T04:40:40.137Z,980.16
2023-03-13T04:41:40.134Z,980.07
2023-03-13T04:42:40.122Z,980.11
2023-03-13T04:43:40.110Z,979.97
2023-03-13T04:44:42.413Z,980.08
2023-03-13T04:45:40.080Z,979.97
2023-03-13T04:46:40.085Z,980.00
2023-03-13T04:47:40.069Z,979.93
2023-03-13T04:48:40.056Z,979.96
2023-03-13T04:49:40.061Z,979.86
2023-03-13T04:50:40.039Z,979.92
2023-03-13T04:51:40.040Z,979.84
2023-03-13T04:52:40.022Z,980.03
2023-03-13T04:53:40.006Z,979.94
2023-03-13T04:54:39.996Z,979.88
2023-03-13T04:55:39.983Z,979.88
2023-03-13T04:56:43.673Z,979.88
2023-03-13T04:57:40.965Z,979.88
2023-03-13T04:58:39.956Z,979.78
2023-03-13T04:59:39.957Z,979.74
2023-03-13T05:00:39.936Z,979.73
2023-03-13T05:01:40.004Z,979.69
2023-03-13T05:02:39.923Z,979.81
2023-03-13T05:03:39.913Z,979.73
2023-03-13T05:04:39.929Z,979.72
2023-03-13T05:05:39.882Z,979.69
2023-03-13T05:06:39.883Z,979.62
2023-03-13T05:07:39.864Z,979.57
2023-03-13T05:08:39.849Z,979.60
2023-03-13T05:09:39.850Z,979.51
2023-03-13T05:10:39.837Z,979.50
2023-03-13T05:11:39.832Z,979.61
2023-03-13T05:12:39.818Z,979.64
2023-03-13T05:13:39.803Z,979.62
2023-03-13T05:14:39.841Z,979.50
2023-03-13T05:15:39.788Z,979.61
2023-03-13T05:16:39.781Z,979.59
2023-03-13T05:17:39.784Z,979.47
2023-03-13T05:18:39.773Z,979.52
2023-03-13T05:19:39.734Z,979.43
2023-03-13T05:20:39.731Z,979.54
2023-03-13T05:21:39.732Z,979.41
2023-03-13T05:22:39.714Z,979.35
2023-03-13T05:23:39.691Z,979.32
2023-03-13T05:24:41.848Z,979.39
2023-03-13T05:25:40.689Z,979.28
2023-03-13T05:26:39.679Z,979.35
2023-03-13T05:27:39.660Z,979.36
2023-03-13T05:28:39.642Z,979.25
2023-03-13T05:29:39.639Z,979.20
2023-03-13T05:30:39.766Z,979.11
2023-03-13T05:31:39.626Z,979.11
2023-03-13T05:32:39.643Z,979.01
2023-03-13T05:33:39.612Z,979.16
2023-03-13T05:34:39.597Z,979.22
2023-03-13T05:35:39.623Z,979.15
2023-03-13T05:36:39.594Z,979.21
2023-03-13T05:37:41.364Z,979.05
2023-03-13T05:38:40.554Z,979.18
2023-03-13T05:39:39.543Z,979.14
2023-03-13T05:40:39.532Z,979.20
2023-03-13T05:41:39.515Z,979.09
2023-03-13T05:42:39.517Z,979.14
2023-03-13T05:43:39.488Z,979.07
2023-03-13T05:44:39.495Z,979.21
2023-03-13T05:45:39.469Z,979.09
2023-03-13T05:46:39.521Z,979.06
2023-03-13T05:47:39.516Z,979.01
2023-03-13T05:48:39.443Z,979.14
2023-03-13T05:49:39.434Z,979.09
2023-03-13T05:50:39.435Z,979.17
2023-03-13T05:51:39.437Z,979.15
2023-03-13T05:52:39.418Z,979.06
2023-03-13T05:53:39.405Z,979.06
2023-03-13T05:54:39.397Z,979.14
2023-03-13T05:55:39.377Z,979.02
2023-03-13T05:56:39.355Z,979.12
2023-03-13T05:57:39.370Z,979.14
2023-03-13T05:58:39.338Z,979.08
2023-03-13T05:59:39.325Z,979.08
2023-03-13T06:00:39.325Z,979.11
2023-03-13T06:01:39.312Z,979.19
2023-03-13T06:02:39.315Z,979.27
2023-03-13T06:03:39.433Z,979.09
2023-03-13T06:04:39.461Z,979.21
2023-03-13T06:05:39.269Z,979.25
2023-03-13T06:06:39.256Z,979.28
2023-03-13T06:07:39.272Z,979.14
2023-03-13T06:08:39.236Z,979.18
2023-03-13T06:09:39.223Z,979.08
2023-03-13T06:10:39.208Z,979.23
2023-03-13T06:11:39.213Z,979.20
2023-03-13T06:12:39.231Z,979.27
2023-03-13T06:13:39.173Z,979.10
2023-03-13T06:14:39.184Z,979.23
2023-03-13T06:15:39.168Z,979.22
2023-03-13T06:16:39.151Z,979.37
2023-03-13T06:17:39.156Z,979.28
2023-03-13T06:18:39.124Z,979.27
2023-03-13T06:19:39.136Z,979.35
2023-03-13T06:20:40.694Z,979.32
2023-03-13T06:21:39.106Z,979.18
2023-03-13T06:22:39.102Z,979.23
2023-03-13T06:23:39.098Z,979.18
2023-03-13T06:24:39.086Z,979.09
2023-03-13T06:25:39.076Z,979.07
2023-03-13T06:26:39.079Z,978.96
2023-03-13T06:27:39.043Z,979.00
2023-03-13T06:28:39.021Z,978.95
2023-03-13T06:29:39.013Z,978.93
2023-03-13T06:30:39.017Z,978.94
2023-03-13T06:31:39.177Z,978.84
2023-03-13T06:32:39.151Z,978.89
2023-03-13T06:33:38.971Z,978.84
2023-03-13T06:34:38.981Z,978.94
2023-03-13T06:35:54.833Z,978.97
2023-03-13T06:36:41.064Z,978.92
2023-03-13T06:37:38.958Z,979.06
2023-03-13T06:38:38.922Z,978.89
2023-03-13T06:39:38.921Z,978.93
2023-03-13T06:40:38.904Z,978.85
2023-03-13T06:41:38.889Z,978.81
2023-03-13T06:42:38.897Z,978.92
2023-03-13T06:43:38.870Z,978.88
2023-03-13T06:44:39.001Z,978.85
2023-03-13T06:45:53.727Z,978.91
2023-03-13T06:46:38.888Z,978.88
2023-03-13T06:47:41.718Z,978.90
2023-03-13T06:48:38.822Z,978.79
2023-03-13T06:49:38.801Z,978.81
2023-03-13T06:50:38.813Z,978.80
2023-03-13T06:51:38.786Z,978.94
2023-03-13T06:52:43.946Z,978.88
2023-03-13T06:53:40.784Z,979.00
2023-03-13T06:54:38.763Z,978.93
2023-03-13T06:55:38.746Z,978.87
2023-03-13T06:56:38.731Z,978.94
2023-03-13T06:57:38.739Z,979.03
2023-03-13T06:58:38.715Z,979.03
2023-03-13T06:59:38.707Z,979.00
2023-03-13T07:00:38.753Z,979.00
2023-03-13T07:01:38.687Z,979.01
2023-03-13T07:02:38.677Z,979.04
2023-03-13T07:03:38.723Z,978.98
2023-03-13T07:04:38.659Z,978.98
2023-03-13T07:05:38.639Z,979.01
2023-03-13T07:06:38.629Z,978.92
2023-03-13T07:07:38.640Z,978.99
2023-03-13T07:08:38.619Z,979.12
2023-03-13T07:09:38.595Z,978.97
2023-03-13T07:10:38.589Z,978.93
2023-03-13T07:11:38.587Z,978.97
2023-03-13T07:12:38.572Z,978.98
2023-03-13T07:13:38.570Z,978.95
2023-03-13T07:14:38.548Z,978.80
2023-03-13T07:15:38.552Z,978.82
2023-03-13T07:16:38.566Z,978.89
2023-03-13T07:17:38.616Z,978.84
2023-03-13T07:18:38.511Z,978.91
2023-03-13T07:19:38.509Z,978.81
2023-03-13T07:20:38.563Z,978.86
2023-03-13T07:21:38.469Z,978.91
2023-03-13T07:22:38.482Z,978.88
2023-03-13T07:23:38.462Z,978.88
2023-03-13T07:24:38.479Z,978.90
2023-03-13T07:25:38.439Z,978.85
2023-03-13T07:26:38.507Z,978.86
2023-03-13T07:27:38.440Z,978.96
2023-03-13T07:28:38.410Z,978.88
2023-03-13T07:29:38.404Z,978.98
2023-03-13T07:30:38.377Z,978.89
2023-03-13T07:31:38.434Z,978.83
2023-03-13T07:32:38.465Z,978.79
2023-03-13T07:33:38.355Z,978.83
2023-03-13T07:34:38.342Z,978.79
2023-03-13T07:35:40.180Z,978.65
2023-03-13T07:36:39.418Z,978.78
2023-03-13T07:37:38.302Z,978.79
2023-03-13T07:38:38.310Z,978.84
2023-03-13T07:39:38.279Z,978.82
2023-03-13T07:40:38.268Z,978.91
2023-03-13T07:41:39.053Z,978.98
2023-03-13T07:42:39.261Z,978.91
2023-03-13T07:43:38.249Z,978.93
2023-03-13T07:44:38.247Z,979.03
2023-03-13T07:45:38.274Z,978.93
2023-03-13T07:46:38.214Z,978.98
2023-03-13T07:47:38.195Z,978.97
2023-03-13T07:48:39.198Z,978.94
2023-03-13T07:49:38.187Z,979.07
2023-03-13T07:50:38.200Z,978.91
2023-03-13T07:51:43.990Z,978.89
2023-03-13T07:52:40.179Z,978.88
2023-03-13T07:53:38.208Z,978.89
2023-03-13T07:54:38.214Z,978.89
2023-03-13T07:55:38.159Z,979.10
2023-03-13T07:56:38.108Z,978.84
2023-03-13T07:57:38.104Z,978.83
2023-03-13T07:58:38.159Z,978.81
2023-03-13T07:59:38.086Z,978.88
2023-03-13T08:00:38.069Z,978.84
2023-03-13T08:01:38.060Z,978.90
2023-03-13T08:02:38.103Z,978.81
2023-03-13T08:03:38.167Z,978.72
2023-03-13T08:04:38.026Z,978.86
2023-03-13T08:05:38.046Z,978.72
2023-03-13T08:06:38.022Z,978.74
2023-03-13T08:07:38.011Z,978.73
2023-03-13T08:08:37.998Z,978.70
2023-03-13T08:09:37.974Z,978.69
2023-03-13T08:10:37.986Z,978.68
2023-03-13T08:11:37.973Z,978.62
2023-03-13T08:12:37.954Z,978.67
2023-03-13T08:13:38.950Z,978.68
2023-03-13T08:14:37.991Z,978.76
2023-03-13T08:15:37.922Z,978.72
2023-03-13T08:16:37.940Z,978.70
2023-03-13T08:17:37.885Z,978.67
2023-03-13T08:18:37.888Z,978.80
2023-03-13T08:19:37.874Z,978.71
2023-03-13T08:20:37.862Z,978.89
2023-03-13T08:21:37.852Z,978.85
2023-03-13T08:22:37.831Z,978.79
2023-03-13T08:23:37.836Z,978.92
2023-03-13T08:24:37.804Z,978.85
2023-03-13T08:25:37.802Z,978.81
2023-03-13T08:26:37.791Z,978.79
2023-03-13T08:27:37.778Z,978.73
2023-03-13T08:28:37.803Z,978.82
2023-03-13T08:29:37.756Z,978.79
2023-03-13T08:30:37.795Z,978.86
2023-03-13T08:31:37.750Z,978.88
2023-03-13T08:32:37.778Z,978.88
2023-03-13T08:33:37.736Z,978.94
2023-03-13T08:34:37.709Z,978.87
2023-03-13T08:35:37.730Z,978.90
2023-03-13T08:36:37.690Z,978.91
2023-03-13T08:37:37.680Z,978.85
2023-03-13T08:38:37.679Z,979.16
2023-03-13T08:39:37.658Z,979.01
2023-03-13T08:40:37.656Z,978.85
2023-03-13T08:41:37.644Z,978.83
2023-03-13T08:42:37.630Z,978.93
2023-03-13T08:43:37.630Z,978.93
2023-03-13T08:44:37.615Z,978.92
2023-03-13T08:45:37.609Z,978.95
2023-03-13T08:46:37.680Z,978.89
2023-03-13T08:47:37.564Z,978.93
2023-03-13T08:48:37.572Z,978.84
2023-03-13T08:49:38.589Z,978.81
2023-03-13T08:50:37.548Z,979.00
2023-03-13T08:51:37.535Z,978.96
2023-03-13T08:52:37.534Z,978.88
2023-03-13T08:53:37.527Z,978.95
2023-03-13T08:54:37.523Z,979.03
2023-03-13T08:55:37.488Z,979.08
2023-03-13T08:56:37.482Z,979.01
2023-03-13T08:57:37.481Z,979.04
2023-03-13T08:58:37.491Z,979.04
2023-03-13T08:59:37.454Z,978.99
2023-03-13T09:00:37.453Z,979.01
2023-03-13T09:01:37.433Z,979.05
2023-03-13T09:02:37.487Z,978.99
2023-03-13T09:03:37.479Z,979.01
2023-03-13T09:04:37.412Z,979.06
2023-03-13T09:05:53.152Z,978.94
2023-03-13T09:07:04.768Z,979.03
2023-03-13T09:07:37.452Z,979.06
2023-03-13T09:08:37.414Z,979.13
2023-03-13T09:09:37.430Z,979.07
2023-03-13T09:10:37.457Z,979.06
2023-03-13T09:11:37.383Z,979.19
2023-03-13T09:12:37.391Z,979.13
2023-03-13T09:13:37.383Z,979.07
2023-03-13T09:14:37.374Z,979.03
2023-03-13T09:15:37.403Z,979.05
2023-03-13T09:16:37.321Z,979.05
2023-03-13T09:17:37.299Z,978.98
2023-03-13T09:18:37.355Z,978.95
2023-03-13T09:19:38.182Z,978.96
2023-03-13T09:20:37.342Z,978.97
2023-03-13T09:21:37.301Z,978.96
2023-03-13T09:22:37.293Z,978.95
2023-03-13T09:23:37.304Z,978.98
2023-03-13T09:24:37.254Z,978.93
2023-03-13T09:25:37.252Z,978.95
2023-03-13T09:26:37.242Z,979.00
2023-03-13T09:27:37.220Z,978.99
2023-03-13T09:28:37.254Z,978.95
2023-03-13T09:29:37.202Z,978.92
2023-03-13T09:30:37.229Z,978.92
2023-03-13T09:31:37.282Z,978.95
2023-03-13T09:32:37.269Z,978.88
2023-03-13T09:33:37.238Z,978.89
2023-03-13T09:34:37.246Z,978.94
2023-03-13T09:35:37.246Z,978.91
2023-03-13T09:36:37.155Z,978.96
2023-03-13T09:37:37.141Z,978.90
2023-03-13T09:38:37.154Z,978.83
2023-03-13T09:39:37.142Z,978.88
2023-03-13T09:40:37.114Z,978.89
2023-03-13T09:41:37.142Z,978.83
2023-03-13T09:42:37.081Z,978.93
2023-03-13T09:43:37.087Z,978.83
2023-03-13T09:44:37.079Z,978.84
2023-03-13T09:45:37.103Z,978.75
2023-03-13T09:46:37.062Z,978.83
2023-03-13T09:47:37.039Z,978.83
2023-03-13T09:48:37.077Z,978.76
2023-03-13T09:49:37.048Z,978.81
2023-03-13T09:50:37.031Z,978.76
2023-03-13T09:51:37.014Z,978.72
2023-03-13T09:52:37.006Z,978.65
2023-03-13T09:53:37.017Z,978.68
2023-03-13T09:54:36.989Z,978.64
2023-03-13T09:55:36.980Z,978.53
2023-03-13T09:56:36.945Z,978.49
2023-03-13T09:57:36.964Z,978.46
2023-03-13T09:58:37.078Z,978.55
2023-03-13T09:59:36.974Z,978.50
2023-03-13T10:00:36.932Z,978.56
2023-03-13T10:01:36.963Z,978.48
2023-03-13T10:02:36.891Z,978.48
2023-03-13T10:03:36.897Z,978.47
2023-03-13T10:04:37.803Z,978.45
2023-03-13T10:05:36.831Z,978.53
2023-03-13T10:06:36.885Z,978.48
2023-03-13T10:07:36.814Z,978.46
2023-03-13T10:08:36.802Z,978.56
2023-03-13T10:09:36.875Z,978.49
2023-03-13T10:10:36.804Z,978.43
2023-03-13T10:11:36.792Z,978.37
2023-03-13T10:12:36.789Z,978.36
2023-03-13T10:13:36.818Z,978.48
2023-03-13T10:14:36.804Z,978.39
2023-03-13T10:15:36.761Z,978.22
2023-03-13T10:16:36.787Z,978.32
2023-03-13T10:17:37.742Z,978.22
2023-03-13T10:18:36.729Z,978.08
2023-03-13T10:19:36.767Z,978.07
2023-03-13T10:20:36.757Z,978.05
2023-03-13T10:21:36.680Z,978.07
2023-03-13T10:22:36.716Z,978.09
2023-03-13T10:23:36.728Z,978.00
2023-03-13T10:24:36.693Z,978.07
2023-03-13T10:25:36.833Z,977.96
2023-03-13T10:26:36.676Z,978.00
2023-03-13T10:27:36.606Z,978.06
2023-03-13T10:28:36.698Z,978.00
2023-03-13T10:29:36.610Z,978.03
2023-03-13T10:30:36.899Z,978.11
2023-03-13T10:31:37.862Z,978.15
2023-03-13T10:32:36.636Z,978.10
2023-03-13T10:33:38.486Z,978.07
2023-03-13T10:34:36.927Z,978.03
2023-03-13T10:36:14.522Z,978.01
2023-03-13T10:36:37.551Z,978.03
2023-03-13T10:38:16.373Z,977.99
2023-03-13T10:38:41.245Z,977.97
2023-03-13T10:39:49.841Z,978.08
2023-03-13T10:40:37.617Z,978.12
2023-03-13T10:45:26.009Z,978.18
2023-03-13T10:48:12.348Z,978.17
2023-03-13T10:48:41.343Z,978.18
2023-03-13T10:50:56.257Z,978.29
2023-03-13T10:51:39.698Z,978.20
2023-03-13T10:52:03.854Z,978.23
2023-03-13T10:56:00.247Z,978.17
2023-03-13T10:57:54.644Z,978.15
2023-03-13T10:58:46.342Z,978.27
2023-03-13T10:59:38.696Z,978.24
2023-03-13T11:02:07.768Z,978.14
2023-03-13T11:03:14.596Z,978.11
2023-03-13T11:06:40.916Z,978.21
2023-03-13T11:08:00.759Z,978.11
2023-03-13T11:09:03.561Z,978.12
2023-03-13T11:09:28.720Z,978.04
2023-03-13T11:10:24.114Z,978.07
2023-03-13T11:11:24.138Z,978.00
2023-03-13T11:12:24.130Z,978.03
2023-03-13T11:13:35.506Z,978.01
2023-03-13T11:14:39.317Z,977.94
2023-03-13T11:15:25.673Z,977.87
2023-03-13T11:16:32.269Z,977.86
2023-03-13T11:17:35.029Z,977.93
2023-03-13T11:18:30.158Z,977.80
2023-03-13T11:19:27.091Z,977.77
2023-03-13T11:20:24.123Z,977.78
2023-03-13T11:21:25.632Z,977.72
2023-03-13T11:22:25.140Z,977.84
2023-03-13T11:23:29.368Z,977.77
2023-03-13T11:25:10.937Z,977.79
2023-03-13T11:27:02.022Z,977.74
2023-03-13T11:27:04.476Z,977.78
2023-03-13T11:27:58.975Z,977.82
2023-03-13T11:29:06.655Z,977.77
2023-03-13T11:29:56.808Z,977.60
2023-03-13T11:30:56.723Z,977.62
2023-03-13T11:31:57.587Z,977.69
2023-03-13T11:32:59.525Z,977.68
2023-03-13T11:33:57.624Z,977.69
2023-03-13T11:34:58.319Z,977.64
2023-03-13T11:35:57.593Z,977.66
2023-03-13T11:36:57.275Z,977.63
2023-03-13T11:37:56.382Z,977.65
2023-03-13T11:38:57.144Z,977.72
2023-03-13T11:39:56.374Z,977.66
2023-03-13T11:40:56.369Z,977.65
2023-03-13T11:41:56.403Z,977.55
2023-03-13T11:42:56.372Z,977.70
2023-03-13T11:43:58.640Z,977.57
2023-03-13T11:44:56.358Z,977.55
2023-03-13T11:45:56.555Z,977.62
2023-03-13T11:46:56.296Z,977.50
2023-03-13T11:47:56.262Z,977.48
2023-03-13T11:48:56.381Z,977.59
2023-03-13T11:49:56.346Z,977.52
2023-03-13T11:50:57.168Z,977.51
2023-03-13T11:51:56.288Z,977.48
2023-03-13T11:52:56.254Z,977.55
2023-03-13T11:53:56.348Z,977.57
2023-03-13T11:54:56.982Z,977.46
2023-03-13T11:55:56.242Z,977.38
2023-03-13T11:56:56.320Z,977.32
2023-03-13T11:57:56.229Z,977.33
2023-03-13T11:58:56.217Z,977.28
2023-03-13T11:59:56.345Z,977.30
2023-03-13T12:00:56.358Z,977.27
2023-03-13T12:01:56.215Z,977.37
2023-03-13T12:02:56.248Z,977.41
2023-03-13T12:03:56.176Z,977.34
2023-03-13T12:04:56.090Z,977.40
2023-03-13T12:05:56.123Z,977.29
2023-03-13T12:06:56.044Z,977.45
2023-03-13T12:07:56.074Z,977.39
2023-03-13T12:08:56.015Z,977.42
2023-03-13T12:09:56.085Z,977.32
2023-03-13T12:10:55.993Z,977.33
2023-03-13T12:11:55.993Z,977.35
2023-03-13T12:12:55.980Z,977.35
2023-03-13T12:13:55.974Z,977.33
2023-03-13T12:14:56.002Z,977.37
2023-03-13T12:15:55.998Z,977.34
2023-03-13T12:16:56.020Z,977.46
2023-03-13T12:17:56.018Z,977.28
2023-03-13T12:18:55.911Z,977.32
2023-03-13T12:19:55.941Z,977.21
2023-03-13T12:20:55.937Z,977.24
2023-03-13T12:21:55.972Z,977.18
2023-03-13T12:22:55.877Z,977.17
2023-03-13T12:23:55.949Z,977.14
2023-03-13T12:24:55.908Z,977.21
2023-03-13T12:25:55.870Z,977.10
2023-03-13T12:26:55.962Z,976.97
2023-03-13T12:27:56.017Z,976.97
2023-03-13T12:28:55.809Z,977.04
2023-03-13T12:29:56.899Z,976.94
2023-03-13T12:30:55.926Z,976.99
2023-03-13T12:31:56.373Z,976.90
2023-03-13T12:32:55.858Z,976.76
2023-03-13T12:33:55.772Z,976.76
2023-03-13T12:34:55.771Z,976.78
2023-03-13T12:35:55.843Z,976.69
2023-03-13T12:36:55.793Z,976.70
2023-03-13T12:37:55.746Z,976.67
2023-03-13T12:38:55.725Z,976.68
2023-03-13T12:39:56.857Z,976.73
2023-03-13T12:40:55.655Z,976.62
2023-03-13T12:41:55.713Z,976.65
2023-03-13T12:42:55.683Z,976.51